• Join FlightAware (Why Join?)
  • Login
  • US Flag 
06:16PM EDT


 

Airport Tracker/Info


-or-


 

Live Flight TrackerFlight Track Log ✈ KAP550 ✈ 08-May-2013 ✈ KMSS - KALB

Flight Track Log - Related Links

Times and Time Zones

All times are in EDT time to prevent confusion due to time zone crossing. See the KAP550 flight status page for this flight to view local times or setup timezone preferences in your user account.

Time Position Orientation Groundspeed Altitude Reporting Facility
EDT Latitude Longitude Course Direction KTS MPH feet Rate Location/Type
05:25PM 44.5644 -74.6808 160° South 150 173 4,700  Level Boston Center
05:26PM 44.5214 -74.6558 158° South 140 161 5,000 240 Climbing Boston Center
05:27PM 44.4906 -74.6256 145° Southeast 140 161 5,300 240 Climbing Boston Center
05:28PM 44.4517 -74.5950 151° Southeast 140 161 5,600 120 Climbing Boston Center
05:29PM 44.4144 -74.5792 163° South 135 155 5,600  Level Boston Center
05:30PM 44.7322 -74.7411 160° South  Level FlightAware Approximate
05:30PM 44.3689 -74.5542 159° South 135 155 5,600  Level Boston Center
05:31PM 44.3297 -74.5356 161° South 135 155 5,600  Level Boston Center
05:32PM 44.2947 -74.5197 162° South 140 161 5,600  Level Boston Center
05:33PM 44.2575 -74.5039 163° South 145 167 5,600  Level Boston Center
05:34PM 44.2244 -74.4883 161° South 145 167 5,600  Level Boston Center
05:35PM 44.1872 -74.4697 160° South 145 167 5,600  Level Boston Center
05:36PM 44.1500 -74.4511 160° South 145 167 5,600  Level Boston Center
05:37PM 44.1067 -74.4322 163° South 150 173 5,600  Level Boston Center
05:38PM 44.0589 -74.4103 162° South 150 173 5,600  Level Boston Center
05:39PM 44.0197 -74.3917 161° South 150 173 5,600  Level Boston Center
05:40PM 43.9783 -74.3731 162° South 150 173 5,600  Level Boston Center
05:41PM 43.9369 -74.3544 162° South 150 173 5,600  Level Boston Center
05:42PM 43.8978 -74.3331 159° South 150 173 5,600  Level Boston Center
05:43PM 43.8606 -74.3175 163° South 150 173 5,600  Level Boston Center
05:44PM 43.8192 -74.2989 162° South 150 173 5,600 120 Level Boston Center
05:45PM 43.7778 -74.2803 162° South 150 173 5,900 480 Climbing Boston Center
05:46PM 43.7467 -74.2650 160° South 139 160 6,600 300 Climbing Boston Center
05:47PM 43.7158 -74.2469 157° South 127 146 6,600  Level Boston Center
05:48PM 43.6764 -74.2228 156° South 132 152 6,600 -60 Level Boston Center
05:49PM 43.6372 -74.2044 161° South 138 159 6,500 -180 Descending Boston Center
05:50PM 43.5917 -74.1831 161° South 156 180 6,300 -300 Descending Boston Center
05:51PM 43.5483 -74.1589 158° South 163 188 6,000 -420 Descending Boston Center
05:52PM 43.5111 -74.1433 163° South 170 196 5,600 -360 Descending Boston Center
05:53PM 43.4592 -74.1192 161° South 169 194 5,300 -300 Descending Boston Center
05:54PM 43.4181 -74.0894 152° Southeast 168 193 5,000 -300 Descending Boston Center
05:55PM 43.3789 -74.0628 154° Southeast 149 171 4,700 -300 Descending Boston Center
05:55PM 43.3789 -74.0628 154° Southeast 163 188 4,700 -240 Level Boston Center
05:56PM 43.3458 -74.0389 152° Southeast 151 174 4,500 -120 Descending Boston Center
05:57PM 43.3044 -74.0092 152° Southeast 139 160 4,500  Level Boston Center
05:58PM 43.2756 -73.9942 159° South 144 166 4,500  Level Boston Center
05:59PM 43.2383 -73.9764 161° South 139 160 4,500  Level Boston Center
06:00PM 43.2053 -73.9583 158° South 139 160 4,500  Level Boston Center
06:01PM 43.1681 -73.9375 158° South 139 160 4,500 -120 Level Boston Center
06:02PM 43.1328 -73.9194 160° South 139 160 4,300 -420 Descending Boston Center
06:03PM 43.0850 -73.8983 162° South 152 175 3,700 -600 Descending Boston Center
06:04PM 43.0478 -73.8778 158° South 159 183 3,100 -540 Descending Boston Center
06:05PM 43.0003 -73.8539 160° South 164 189 2,700 -360 Descending Boston Center
06:07PM 42.9531 -73.8451 172° South  Level FlightAware Approximate
06:08PM 42.9131 -73.8178 172° South 157 181 2,000  Level Boston Center
06:09PM 42.8736 -73.8142 176° South 148 170 2,000 -120 Level Boston Center
06:10PM 42.8297 -73.8131 179° South 149 171 1,800 -540 Descending Boston Center
06:11PM 42.7922 -73.8094 176° South 127 146 1,000 -720 Descending Boston Center
06:12PM 42.7589 -73.8058 175° South 116 133 400 -600 Descending Boston Center
06:14PM 42.7491 -73.8020 170° South  Level Estimated
06:21PM 42.7491 -73.8020 170° South  Level Estimated
06:22PM 42.7491 -73.8020 170° South  Level Estimated